Time;durP1;ratioP1;P1;durP2;ratioP2;P2;SDS_P1;SDS_P2;PMS_P1;PMS_P2;Temp;Humidity;BMP_temperature;BMP_pressure;BME280_temperature;BME280_humidity;BME280_pressure;Samples;Min_cycle;Max_cycle;Signal;HPM_P1;HPM_P2
2022/06/30 00:00:07;;;;;;;10.02;7.18;;;;;;;18.33;89.01;95989.78;4861154;29;20058;-80
2022/06/30 00:02:34;;;;;;;9.18;6.80;;;;;;;18.31;89.03;95981.09;4860275;29;20063;-81
2022/06/30 00:05:00;;;;;;;8.73;6.82;;;;;;;18.28;89.01;95976.34;4861028;29;20045;-80
2022/06/30 00:07:26;;;;;;;8.73;6.32;;;;;;;18.24;89.14;95970.00;4860157;29;20045;-80
2022/06/30 00:09:53;;;;;;;8.77;6.30;;;;;;;18.25;89.48;95972.34;4871792;29;20045;-80
2022/06/30 00:12:19;;;;;;;9.60;7.03;;;;;;;18.26;89.91;95967.63;4863464;29;20060;-80
2022/06/30 00:14:46;;;;;;;8.90;6.53;;;;;;;18.26;89.99;95967.63;4862656;29;20052;-80
2022/06/30 00:17:14;;;;;;;8.60;6.63;;;;;;;18.24;90.19;95967.22;4865411;29;20593;-80
2022/06/30 00:19:41;;;;;;;9.18;6.60;;;;;;;18.23;90.40;95962.91;4865407;29;20042;-80
2022/06/30 00:22:07;;;;;;;12.57;8.32;;;;;;;18.15;90.18;95964.75;4878585;29;20642;-81
2022/06/30 00:24:34;;;;;;;9.45;7.82;;;;;;;18.09;89.88;95971.78;4883629;29;20052;-81
2022/06/30 00:27:01;;;;;;;8.63;6.97;;;;;;;18.12;89.62;95973.00;4883239;29;20060;-81
2022/06/30 00:29:27;;;;;;;7.68;6.63;;;;;;;18.17;90.10;95958.91;4883116;29;20041;-81
2022/06/30 00:31:54;;;;;;;10.43;7.03;;;;;;;18.18;90.29;95960.47;4884713;29;20045;-80
2022/06/30 00:34:22;;;;;;;13.63;7.85;;;;;;;18.16;90.54;95951.78;4882652;29;20060;-81
2022/06/30 00:36:48;;;;;;;10.75;7.82;;;;;;;18.07;90.69;95954.84;4882417;29;20417;-80
2022/06/30 00:39:15;;;;;;;10.68;7.35;;;;;;;18.08;90.39;95959.19;4882195;29;20057;-81
2022/06/30 00:41:42;;;;;;;10.90;7.43;;;;;;;18.11;90.21;95958.41;4883103;29;20049;-79
2022/06/30 00:44:12;;;;;;;10.07;7.82;;;;;;;18.12;90.55;95953.72;4882101;29;20056;-80
2022/06/30 00:46:38;;;;;;;8.93;7.07;;;;;;;18.12;90.42;95950.97;4882984;29;20052;-81
2022/06/30 00:49:05;;;;;;;11.77;7.95;;;;;;;18.11;90.38;95954.88;4882869;29;20540;-80
2022/06/30 00:51:33;;;;;;;12.68;8.55;;;;;;;18.04;90.71;95954.78;4882405;29;20044;-80
2022/06/30 00:54:02;;;;;;;14.60;10.00;;;;;;;17.87;91.53;95948.69;4878992;29;20055;-80
2022/06/30 00:56:30;;;;;;;14.57;9.68;;;;;;;17.82;92.06;95935.25;4879761;29;20409;-80
2022/06/30 00:59:01;;;;;;;12.57;9.60;;;;;;;17.79;92.64;95932.44;4881357;29;20057;-80
2022/06/30 01:01:30;;;;;;;11.68;9.60;;;;;;;17.78;92.90;95939.94;4881713;29;20052;-81
2022/06/30 01:03:57;;;;;;;13.48;9.52;;;;;;;17.82;92.66;95940.78;4883745;29;20049;-81
2022/06/30 01:06:24;;;;;;;14.48;9.43;;;;;;;17.83;93.18;95939.59;4881973;29;20056;-81
2022/06/30 01:08:52;;;;;;;10.90;9.80;;;;;;;17.85;92.95;95948.25;4882519;29;20049;-81
2022/06/30 01:14:03;;;;;;;10.32;8.02;;;;;;;17.93;92.31;95941.69;4880821;29;20132;-80
2022/06/30 01:16:30;;;;;;;13.20;9.18;;;;;;;17.96;92.24;95932.69;4883053;29;20049;-81
2022/06/30 01:18:57;;;;;;;10.45;8.20;;;;;;;17.99;92.20;95940.19;4883397;29;20049;-80
2022/06/30 01:21:27;;;;;;;11.65;8.32;;;;;;;18.00;91.99;95939.00;4881974;29;20053;-80
2022/06/30 01:23:54;;;;;;;14.00;8.90;;;;;;;18.02;91.97;95946.13;4882743;29;20049;-80
2022/06/30 01:26:23;;;;;;;12.75;9.25;;;;;;;17.95;91.99;95941.31;4862814;29;20184;-81
2022/06/30 01:28:50;;;;;;;12.10;8.40;;;;;;;17.96;91.57;95943.69;4862941;29;20068;-81
2022/06/30 01:31:16;;;;;;;11.18;8.80;;;;;;;17.94;91.70;95945.22;4863350;29;20065;-80
2022/06/30 01:33:43;;;;;;;12.85;9.05;;;;;;;17.90;91.79;95944.38;4864474;29;20056;-81
2022/06/30 01:36:09;;;;;;;10.60;9.00;;;;;;;17.89;91.61;95940.84;4863743;29;20046;-81
2022/06/30 01:38:37;;;;;;;9.05;7.35;;;;;;;17.91;91.35;95946.00;4864131;29;20057;-80
2022/06/30 01:41:04;;;;;;;10.30;8.48;;;;;;;17.79;91.00;95949.78;4864807;29;20053;-81
2022/06/30 01:43:31;;;;;;;9.73;8.20;;;;;;;17.84;91.07;95948.66;4865238;29;20045;-81
2022/06/30 01:45:57;;;;;;;10.73;7.63;;;;;;;17.85;91.13;95951.03;4864240;29;20053;-80
2022/06/30 01:48:24;;;;;;;10.10;7.80;;;;;;;17.81;91.25;95941.94;4862041;29;20053;-80
2022/06/30 01:50:50;;;;;;;11.50;8.40;;;;;;;17.81;91.38;95947.44;4863293;29;20498;-81
2022/06/30 01:53:17;;;;;;;11.27;9.13;;;;;;;17.69;91.56;95944.88;4862412;29;20053;-82
2022/06/30 01:55:45;;;;;;;16.45;9.35;;;;;;;17.64;91.73;95945.22;4884677;29;20432;-82
2022/06/30 01:58:11;;;;;;;12.43;9.00;;;;;;;17.62;91.64;95948.34;4892448;29;20128;-80
2022/06/30 02:00:39;;;;;;;13.65;9.52;;;;;;;17.62;91.91;95950.31;4884802;29;20049;-81
2022/06/30 02:03:06;;;;;;;14.13;10.00;;;;;;;17.57;92.40;95945.13;4883369;29;20049;-81
2022/06/30 02:05:32;;;;;;;12.90;8.77;;;;;;;17.57;92.58;95948.66;4882111;29;20076;-81
2022/06/30 02:07:59;;;;;;;13.25;9.98;;;;;;;17.54;92.78;95948.63;4886295;29;20075;-81
2022/06/30 02:10:25;;;;;;;15.57;9.10;;;;;;;17.56;92.78;95940.78;4883216;29;20052;-81
2022/06/30 02:12:53;;;;;;;11.32;9.10;;;;;;;17.59;92.37;95946.34;4882550;29;20132;-81
2022/06/30 02:15:22;;;;;;;14.85;10.20;;;;;;;17.54;92.60;95943.09;4880712;29;20057;-81
2022/06/30 02:17:50;;;;;;;13.93;10.52;;;;;;;17.40;93.22;95947.28;4881235;29;20055;-79
2022/06/30 02:20:21;;;;;;;13.90;9.80;;;;;;;17.41;93.43;95945.31;4881078;29;20528;-82
2022/06/30 02:22:49;;;;;;;11.13;8.70;;;;;;;17.52;93.22;95953.72;4882187;29;20087;-80
2022/06/30 02:25:16;;;;;;;12.60;8.90;;;;;;;17.59;93.15;95942.78;4885672;29;20045;-80
2022/06/30 02:27:43;;;;;;;9.95;8.48;;;;;;;17.60;93.14;95947.94;4882248;29;20049;-81
2022/06/30 02:30:12;;;;;;;11.68;8.93;;;;;;;17.60;93.07;95953.44;4881248;29;20053;-80
2022/06/30 02:32:39;;;;;;;13.57;9.15;;;;;;;17.68;92.63;95954.31;4880708;29;20049;-80
2022/06/30 02:35:07;;;;;;;11.02;8.45;;;;;;;17.68;92.13;95948.81;4880629;29;20060;-81
2022/06/30 02:37:33;;;;;;;10.43;8.10;;;;;;;17.68;91.79;95944.09;4881433;29;20041;-81
2022/06/30 02:40:00;;;;;;;12.75;7.82;;;;;;;17.69;91.69;95950.41;4880233;29;20060;-81
2022/06/30 02:42:26;;;;;;;8.20;7.15;;;;;;;17.70;91.92;95952.00;4880222;29;20063;-81
2022/06/30 02:44:53;;;;;;;10.65;7.85;;;;;;;17.71;91.94;95953.59;4880748;29;20041;-81
2022/06/30 02:47:21;;;;;;;12.07;9.18;;;;;;;17.64;91.69;95958.97;4880632;29;20053;-80
2022/06/30 02:49:47;;;;;;;10.65;7.95;;;;;;;17.64;91.84;95962.53;4880457;29;20049;-81
2022/06/30 02:52:14;;;;;;;12.10;8.68;;;;;;;17.60;91.69;95958.94;4880236;29;20064;-82
2022/06/30 02:54:40;;;;;;;12.52;8.50;;;;;;;17.57;91.65;95965.19;4879501;29;20045;-80
2022/06/30 02:57:07;;;;;;;10.02;8.07;;;;;;;17.66;91.53;95964.91;4879939;29;20060;-80
2022/06/30 02:59:33;;;;;;;11.18;8.18;;;;;;;17.65;91.12;95968.84;4880726;29;20052;-81
2022/06/30 03:02:00;;;;;;;11.75;8.55;;;;;;;17.60;91.24;95964.47;4880306;29;20049;-81
2022/06/30 03:04:28;;;;;;;11.10;8.00;;;;;;;17.60;91.33;95966.41;4879032;29;20056;-81
2022/06/30 03:06:55;;;;;;;10.43;8.35;;;;;;;17.62;90.71;95970.38;4880722;29;20048;-80
2022/06/30 03:09:23;;;;;;;12.73;7.65;;;;;;;17.65;91.07;95971.59;4879307;29;20049;-81
2022/06/30 03:11:50;;;;;;;10.27;7.82;;;;;;;17.65;91.28;95971.59;4880458;29;20045;-80
2022/06/30 03:14:16;;;;;;;10.45;7.45;;;;;;;17.66;91.42;95978.69;4878746;29;20049;-80
2022/06/30 03:16:43;;;;;;;9.80;7.60;;;;;;;17.69;91.27;95972.41;4881585;29;20056;-80
2022/06/30 03:19:09;;;;;;;9.10;7.43;;;;;;;17.68;91.13;95971.63;4880571;29;20053;-81
2022/06/30 03:21:37;;;;;;;8.63;7.07;;;;;;;17.70;91.22;95974.81;4874701;29;20592;-82
2022/06/30 03:24:04;;;;;;;9.35;6.72;;;;;;;17.65;90.56;95977.09;4890925;29;20049;-80
2022/06/30 03:26:30;;;;;;;8.40;6.68;;;;;;;17.61;90.39;95976.25;4881069;29;20073;-80
2022/06/30 03:28:57;;;;;;;8.75;7.13;;;;;;;17.59;90.52;95984.91;4879101;29;20057;-80
2022/06/30 03:31:25;;;;;;;8.32;6.90;;;;;;;17.59;90.64;95984.09;4880179;29;20052;-80
2022/06/30 03:33:52;;;;;;;8.45;6.88;;;;;;;17.61;90.93;95981.75;4880755;29;20067;-82
2022/06/30 03:36:19;;;;;;;11.25;7.20;;;;;;;17.60;90.68;95980.97;4880352;29;20059;-81
2022/06/30 03:38:46;;;;;;;8.02;6.50;;;;;;;17.60;90.51;95980.19;4887565;29;20052;-82
2022/06/30 03:41:13;;;;;;;8.48;7.28;;;;;;;17.60;90.84;95977.44;4886655;29;20057;-81
2022/06/30 03:43:40;;;;;;;10.68;7.00;;;;;;;17.61;91.23;95985.31;4883309;29;20501;-81
2022/06/30 03:46:06;;;;;;;8.80;6.95;;;;;;;17.64;91.90;95981.00;4886196;29;20055;-81
2022/06/30 03:48:35;;;;;;;7.72;6.47;;;;;;;17.64;92.06;95987.31;4880466;29;20053;-81
2022/06/30 03:51:01;;;;;;;11.20;7.40;;;;;;;17.62;91.53;95983.34;4883075;29;20073;-76
2022/06/30 03:53:28;;;;;;;11.07;7.85;;;;;;;17.51;91.28;95988.72;4884728;29;20053;-80
2022/06/30 03:55:56;;;;;;;10.75;7.80;;;;;;;17.37;91.49;95983.78;4887860;29;20056;-81
2022/06/30 03:58:23;;;;;;;10.02;7.00;;;;;;;17.37;91.37;95982.97;4883227;29;20049;-81
2022/06/30 04:00:50;;;;;;;9.65;6.82;;;;;;;17.42;91.08;95986.22;4883856;29;20497;-81
2022/06/30 04:03:16;;;;;;;9.93;7.25;;;;;;;17.47;91.22;95983.13;4882433;29;20049;-80
2022/06/30 04:05:43;;;;;;;9.40;6.70;;;;;;;17.52;91.46;95976.53;4884035;29;20069;-80
2022/06/30 04:08:10;;;;;;;7.97;6.90;;;;;;;17.56;91.80;95982.88;4882126;29;20052;-81
2022/06/30 04:10:37;;;;;;;12.05;6.68;;;;;;;17.61;92.08;95987.28;4877015;29;20053;-81
2022/06/30 04:13:05;;;;;;;9.35;7.53;;;;;;;17.62;91.91;95977.84;4893878;29;20076;-80
2022/06/30 04:15:31;;;;;;;10.00;7.05;;;;;;;17.64;91.74;95976.28;4883892;29;20493;-81
2022/06/30 04:17:58;;;;;;;14.20;8.40;;;;;;;17.61;91.57;95981.75;4884082;29;20057;-79
2022/06/30 04:20:24;;;;;;;12.73;8.60;;;;;;;17.58;91.86;95982.50;4882763;29;20739;-81
2022/06/30 04:22:53;;;;;;;10.30;7.22;;;;;;;17.68;91.69;95987.34;4882946;29;20517;-82
2022/06/30 04:25:20;;;;;;;8.38;7.38;;;;;;;17.72;91.64;95985.47;4887273;29;20063;-81
2022/06/30 04:27:48;;;;;;;10.70;8.50;;;;;;;17.70;91.38;95985.84;4885218;29;20417;-81
2022/06/30 04:32:37;;;;;;;10.32;7.70;;;;;;;17.73;91.30;95984.31;4882827;29;20053;-80
2022/06/30 04:33:05;;;;;;;8.63;6.95;;;;;;;17.82;91.80;95986.78;4883390;29;20128;-81
2022/06/30 04:35:32;;;;;;;11.68;8.20;;;;;;;17.79;91.58;95991.06;4881891;29;20101;-81
2022/06/30 04:37:59;;;;;;;10.05;7.53;;;;;;;17.83;91.33;95994.69;4882902;29;20425;-81
2022/06/30 04:43:10;;;;;;;10.38;7.55;;;;;;;17.57;90.41;95997.44;4886422;29;20513;-81
2022/06/30 04:45:38;;;;;;;8.25;7.32;;;;;;;17.62;90.11;96006.16;4885073;29;20068;-81
2022/06/30 04:48:05;;;;;;;12.73;7.28;;;;;;;17.68;89.60;96006.63;4883847;29;20053;-81
2022/06/30 04:50:32;;;;;;;7.30;6.28;;;;;;;17.76;89.01;96000.09;4883724;29;20053;-81
2022/06/30 04:52:58;;;;;;;9.80;6.95;;;;;;;17.71;89.23;95997.66;4882729;29;20679;-79
2022/06/30 04:55:25;;;;;;;9.82;6.88;;;;;;;17.58;89.47;96007.28;4880223;29;20049;-79
2022/06/30 04:57:52;;;;;;;8.40;6.35;;;;;;;17.74;89.20;96002.41;4883217;29;20057;-81
2022/06/30 05:00:18;;;;;;;9.18;6.22;;;;;;;17.71;89.18;96011.41;4886504;29;20046;-82
2022/06/30 05:02:46;;;;;;;7.57;6.55;;;;;;;17.79;89.38;96002.09;4884455;29;20049;-81
2022/06/30 05:05:13;;;;;;;9.77;6.43;;;;;;;17.91;89.01;96001.88;4883638;29;20064;-81
2022/06/30 05:07:39;;;;;;;7.20;5.40;;;;;;;18.07;89.04;95995.38;4882281;29;20045;-80
2022/06/30 05:10:06;;;;;;;9.98;6.28;;;;;;;18.15;89.00;95991.53;4880019;29;20057;-80
2022/06/30 05:12:33;;;;;;;8.15;5.70;;;;;;;18.22;88.88;95995.19;4881301;29;20072;-80
2022/06/30 05:15:00;;;;;;;10.77;6.70;;;;;;;18.11;88.56;95987.94;4879856;29;20052;-79
2022/06/30 05:17:26;;;;;;;7.68;6.07;;;;;;;18.11;88.78;95987.94;4878968;29;20093;-79
2022/06/30 05:19:54;;;;;;;8.90;6.50;;;;;;;18.23;88.49;95995.97;4880111;29;20068;-80
2022/06/30 05:22:21;;;;;;;10.02;6.72;;;;;;;18.19;89.66;95992.38;4882428;29;20049;-80
2022/06/30 05:27:32;;;;;;;8.38;6.57;;;;;;;18.44;87.45;95993.44;4880724;29;20120;-80
2022/06/30 05:29:58;;;;;;;9.32;5.80;;;;;;;18.45;87.83;95989.50;4881681;29;20073;-81
2022/06/30 05:32:25;;;;;;;13.95;6.22;;;;;;;18.46;86.62;95985.59;4883372;29;20052;-80
2022/06/30 05:34:54;;;;;;;8.27;5.38;;;;;;;18.63;86.55;95989.69;4884215;29;20118;-79
2022/06/30 05:37:21;;;;;;;6.95;5.28;;;;;;;18.67;85.99;95996.03;4883741;29;20500;-81
2022/06/30 05:39:48;;;;;;;8.38;5.63;;;;;;;18.76;85.38;95984.72;4884670;29;20061;-80
2022/06/30 05:42:14;;;;;;;7.95;5.22;;;;;;;18.72;83.46;95994.94;4882388;29;20053;-81
2022/06/30 05:44:41;;;;;;;8.40;5.40;;;;;;;18.82;83.91;95994.25;4887062;29;20041;-84
2022/06/30 05:47:07;;;;;;;6.85;4.97;;;;;;;19.01;84.89;95988.50;4884858;29;20414;-80
2022/06/30 05:49:34;;;;;;;8.13;5.13;;;;;;;19.05;84.08;95991.28;4883518;29;20850;-86
2022/06/30 05:52:01;;;;;;;6.97;4.75;;;;;;;19.10;82.71;95990.94;4896542;29;20053;-83
2022/06/30 05:54:28;;;;;;;5.82;4.45;;;;;;;19.21;83.52;95989.06;4892601;29;20053;-82
2022/06/30 05:56:54;;;;;;;6.90;5.03;;;;;;;19.23;83.01;95992.22;4893161;29;20041;-81
2022/06/30 05:59:21;;;;;;;7.03;4.50;;;;;;;19.38;82.95;95993.13;4891166;29;20048;-84
2022/06/30 06:01:48;;;;;;;6.78;5.00;;;;;;;19.27;82.16;95987.53;4946807;23;20037;-84
2022/06/30 06:04:15;;;;;;;8.52;4.70;;;;;;;19.44;82.00;95996.31;4894006;29;20059;-83
2022/06/30 06:06:41;;;;;;;9.40;5.47;;;;;;;19.43;80.59;95995.53;4897083;29;20041;-83
2022/06/30 06:09:16;;;;;;;6.82;4.80;;;;;;;19.56;80.85;95991.25;4891581;29;20085;-83
2022/06/30 06:11:46;;;;;;;10.57;5.18;;;;;;;19.74;81.01;95993.38;4893255;29;20045;-81
2022/06/30 06:14:13;;;;;;;6.35;4.72;;;;;;;19.80;79.97;95987.09;4894622;29;20065;-85
2022/06/30 06:16:40;;;;;;;8.38;4.97;;;;;;;19.71;80.43;95999.69;4895648;29;20045;-82
2022/06/30 06:19:06;;;;;;;6.38;4.00;;;;;;;19.83;80.53;95990.25;4891483;29;20479;-83
2022/06/30 06:21:36;;;;;;;10.23;6.22;;;;;;;19.92;82.02;95979.66;4893220;29;20060;-82
2022/06/30 06:24:03;;;;;;;5.72;4.20;;;;;;;20.05;82.53;95984.47;4899619;29;20028;-82
2022/06/30 06:26:31;;;;;;;7.55;4.53;;;;;;;20.13;82.81;95995.53;4883640;29;20055;-82
2022/06/30 06:29:06;;;;;;;8.68;4.75;;;;;;;20.19;81.94;95991.22;4887766;29;20049;-82
2022/06/30 06:31:34;;;;;;;6.47;4.43;;;;;;;20.28;81.59;95986.13;4873953;29;20056;-84
2022/06/30 06:34:09;;;;;;;7.03;4.78;;;;;;;20.17;80.62;95986.09;4870377;29;20525;-82
2022/06/30 06:36:37;;;;;;;5.75;4.28;;;;;;;20.32;80.50;95978.63;4874219;29;20056;-83
2022/06/30 06:39:04;;;;;;;8.13;4.50;;;;;;;20.32;79.22;95979.44;4874327;29;20053;-82
2022/06/30 06:41:32;;;;;;;10.52;5.22;;;;;;;20.29;78.66;95974.66;4874637;29;20049;-82
2022/06/30 06:43:59;;;;;;;9.95;4.38;;;;;;;20.37;78.93;95972.72;4875466;29;20060;-85
2022/06/30 06:46:27;;;;;;;10.02;4.60;;;;;;;20.43;77.51;95981.44;4878031;29;20114;-84
2022/06/30 06:48:55;;;;;;;8.85;4.47;;;;;;;20.52;77.66;95979.13;4880256;29;20057;-83
2022/06/30 06:51:22;;;;;;;4.22;3.83;;;;;;;20.63;76.64;95974.41;4876186;29;20064;-81
2022/06/30 06:53:48;;;;;;;7.70;3.80;;;;;;;20.56;74.06;95975.16;4885137;29;20402;-85
2022/06/30 06:58:57;;;;;;;9.35;4.28;;;;;;;20.66;73.83;95976.38;4886693;29;20041;-82
2022/06/30 07:01:24;;;;;;;7.88;4.32;;;;;;;20.67;72.90;95982.69;4883578;29;20057;-81
2022/06/30 07:03:51;;;;;;;7.90;4.00;;;;;;;20.81;73.60;95977.19;4882963;29;20069;-82
2022/06/30 07:06:17;;;;;;;9.38;4.45;;;;;;;20.82;74.56;95978.75;4878461;29;20065;-79
2022/06/30 07:08:44;;;;;;;7.40;4.00;;;;;;;20.83;73.09;95977.59;4868695;29;20048;-88
2022/06/30 07:11:11;;;;;;;8.63;4.00;;;;;;;21.04;74.25;95972.06;5011417;23;20413;-80
2022/06/30 07:13:41;;;;;;;7.38;4.10;;;;;;;21.08;72.84;95964.53;4895862;29;20045;-81
2022/06/30 07:16:09;;;;;;;6.30;4.20;;;;;;;21.18;73.21;95962.16;4906175;23;20442;-79
2022/06/30 07:18:36;;;;;;;5.68;3.65;;;;;;;21.26;71.62;95959.00;4891116;29;20072;-86
2022/06/30 07:21:03;;;;;;;5.43;3.50;;;;;;;21.39;72.44;95964.94;4892457;29;20572;-82
2022/06/30 07:23:30;;;;;;;7.93;3.95;;;;;;;21.50;73.36;95962.94;4899545;29;20069;-86
2022/06/30 07:25:58;;;;;;;5.15;3.78;;;;;;;21.51;72.54;95961.00;4892810;29;20124;-81
2022/06/30 07:28:31;;;;;;;4.95;3.90;;;;;;;21.61;74.14;95958.19;4885978;29;20045;-82
2022/06/30 07:30:57;;;;;;;;;;;;;;;21.78;74.31;95961.31;4885199;29;20457;-80
2022/06/30 07:33:25;;;;;;;7.78;4.78;;;;;;;21.86;74.64;95963.66;4877030;29;19932;-79
2022/06/30 07:35:51;;;;;;;5.60;3.75;;;;;;;22.01;75.02;95969.94;4882257;29;20052;-81
2022/06/30 07:38:18;;;;;;;6.45;4.07;;;;;;;22.03;73.91;95962.03;4926610;23;20053;-82
2022/06/30 07:40:45;;;;;;;6.60;4.18;;;;;;;22.13;74.20;95965.97;4893922;29;20527;-82
2022/06/30 07:43:11;;;;;;;5.65;3.80;;;;;;;22.15;72.48;95963.59;4866073;29;20049;-84
2022/06/30 07:45:38;;;;;;;7.07;3.97;;;;;;;22.32;73.04;95961.91;4868927;29;20041;-79
2022/06/30 07:48:05;;;;;;;5.10;3.83;;;;;;;22.42;74.33;95954.75;4860135;29;20049;-82
2022/06/30 07:50:33;;;;;;;7.72;4.53;;;;;;;22.48;74.12;95947.56;4859290;29;20053;-78
2022/06/30 07:53:00;;;;;;;7.43;4.20;;;;;;;22.56;74.08;95947.13;4857367;29;20053;-78
2022/06/30 07:55:26;;;;;;;6.97;3.95;;;;;;;22.60;73.32;95945.13;4857253;29;20513;-79
2022/06/30 07:57:53;;;;;;;6.82;4.15;;;;;;;22.63;71.66;95944.31;4858914;29;20049;-78
2022/06/30 08:00:24;;;;;;;7.03;4.10;;;;;;;22.76;70.81;95947.41;4857183;29;20053;-79
2022/06/30 08:02:50;;;;;;;6.38;4.22;;;;;;;22.84;72.34;95942.56;4857495;29;20125;-78
2022/06/30 08:05:17;;;;;;;6.80;4.18;;;;;;;22.98;72.79;95956.38;4857096;29;20042;-78
2022/06/30 08:07:45;;;;;;;5.25;4.07;;;;;;;23.09;69.80;95959.88;4857281;29;20056;-77
2022/06/30 08:10:11;;;;;;;5.78;3.92;;;;;;;23.27;68.74;95950.59;4856792;29;20134;-78
2022/06/30 08:12:38;;;;;;;6.28;3.80;;;;;;;23.43;70.18;95945.28;4857391;29;20052;-78
2022/06/30 08:15:05;;;;;;;5.32;3.53;;;;;;;23.57;64.90;95944.34;4856841;29;20056;-77
2022/06/30 08:17:32;;;;;;;6.47;3.63;;;;;;;24.06;65.98;95948.59;4857516;29;20045;-77
2022/06/30 08:19:58;;;;;;;6.18;3.38;;;;;;;24.69;64.24;95945.41;4856552;29;20425;-78
2022/06/30 08:22:25;;;;;;;6.82;3.33;;;;;;;25.14;62.83;95937.56;4856616;29;20053;-78
2022/06/30 08:24:54;;;;;;;6.97;3.20;;;;;;;25.27;60.31;95945.31;4856014;29;20084;-78
2022/06/30 08:27:21;;;;;;;5.72;3.85;;;;;;;25.53;59.63;95941.69;4855756;29;20441;-78
2022/06/30 08:29:48;;;;;;;5.18;3.40;;;;;;;25.70;60.92;95940.56;4857004;29;20439;-80
2022/06/30 08:32:14;;;;;;;7.45;3.92;;;;;;;25.82;60.21;95938.38;4857041;29;20061;-77
2022/06/30 08:34:42;;;;;;;5.55;3.60;;;;;;;25.91;59.86;95944.19;4857221;29;20155;-78
2022/06/30 08:37:09;;;;;;;8.50;4.18;;;;;;;25.65;58.18;95949.44;4857551;29;20479;-78
2022/06/30 08:42:22;;;;;;;6.95;4.30;;;;;;;25.91;63.44;95933.03;4860192;29;20544;-80
2022/06/30 08:45:13;;;;;;;6.78;4.35;;;;;;;25.72;60.48;95931.75;4860358;29;20057;-78
2022/06/30 08:47:37;;;;;;;5.43;4.00;;;;;;;25.79;57.26;95925.28;4859902;29;20048;-78
2022/06/30 08:50:04;;;;;;;5.97;3.85;;;;;;;25.96;56.88;95922.16;4859099;29;20391;-79
2022/06/30 08:52:32;;;;;;;5.70;3.70;;;;;;;26.09;57.75;95932.66;4861843;29;20052;-78
2022/06/30 08:55:00;;;;;;;6.85;4.00;;;;;;;26.19;59.50;95921.28;4863899;29;20459;-77
2022/06/30 08:57:31;;;;;;;7.40;3.90;;;;;;;26.25;57.52;95921.56;4862237;29;20451;-78
2022/06/30 08:59:58;;;;;;;5.82;3.58;;;;;;;26.35;56.06;95916.97;4861791;29;20069;-78
2022/06/30 09:02:24;;;;;;;7.60;4.20;;;;;;;26.19;56.30;95920.50;4860111;29;20049;-78
2022/06/30 09:04:51;;;;;;;6.95;3.67;;;;;;;26.44;57.67;95908.84;4860598;29;20049;-78
2022/06/30 09:07:17;;;;;;;6.68;3.78;;;;;;;26.62;56.88;95914.78;4860041;29;20072;-79
2022/06/30 09:09:44;;;;;;;6.38;3.63;;;;;;;26.76;58.36;95913.69;4860086;29;20042;-78
2022/06/30 09:12:15;;;;;;;9.38;4.18;;;;;;;26.61;53.54;95913.22;4859748;29;20053;-78
2022/06/30 09:14:43;;;;;;;7.07;3.70;;;;;;;26.51;55.97;95920.63;4860060;29;20049;-79
2022/06/30 09:17:13;;;;;;;4.93;3.63;;;;;;;26.67;54.28;95919.84;4859490;29;20544;-78
2022/06/30 09:19:51;;;;;;;7.20;3.80;;;;;;;26.88;57.82;95912.19;4859867;29;20049;-79
2022/06/30 09:22:18;;;;;;;7.05;3.55;;;;;;;26.97;54.32;95912.38;4859650;29;20060;-79
2022/06/30 09:24:44;;;;;;;6.53;3.85;;;;;;;27.02;56.27;95912.66;4860168;29;20053;-79
2022/06/30 09:27:16;;;;;;;5.65;3.15;;;;;;;27.07;52.91;95911.38;4859337;29;20045;-79
2022/06/30 09:29:52;;;;;;;6.33;3.87;;;;;;;27.14;54.41;95913.97;4860063;29;20053;-78
2022/06/30 09:32:19;;;;;;;8.55;3.78;;;;;;;27.10;54.31;95909.72;4859343;29;20054;-78
2022/06/30 09:34:45;;;;;;;6.90;3.90;;;;;;;27.29;58.49;95918.00;4859724;29;20439;-79
2022/06/30 09:37:16;;;;;;;11.85;4.68;;;;;;;27.20;53.84;95903.88;4858966;29;20049;-77
2022/06/30 09:39:44;;;;;;;6.40;3.75;;;;;;;27.42;55.17;95909.69;4859269;29;20041;-79
2022/06/30 09:42:10;;;;;;;7.85;3.95;;;;;;;27.35;54.50;95897.88;4858890;29;20113;-77
2022/06/30 09:44:37;;;;;;;7.03;4.22;;;;;;;27.29;56.01;95904.00;4859295;29;20080;-79
2022/06/30 09:47:06;;;;;;;5.78;3.92;;;;;;;27.01;51.13;95893.53;4858854;29;20045;-79
2022/06/30 09:49:34;;;;;;;7.65;4.03;;;;;;;27.09;55.28;95892.16;4858768;29;20688;-78
2022/06/30 09:52:04;;;;;;;7.72;4.68;;;;;;;27.07;54.57;95889.00;4859434;29;20046;-77
2022/06/30 09:54:33;;;;;;;4.85;3.65;;;;;;;27.00;52.80;95883.59;4859314;29;20089;-78
2022/06/30 09:57:04;;;;;;;4.97;3.70;;;;;;;27.21;54.40;95893.47;4859086;29;20466;-78
2022/06/30 09:59:31;;;;;;;11.47;4.10;;;;;;;27.37;56.02;95895.47;4859018;29;20045;-78
2022/06/30 10:01:58;;;;;;;5.80;3.80;;;;;;;27.54;54.71;95889.38;4859230;29;20058;-78
2022/06/30 10:04:26;;;;;;;6.75;3.90;;;;;;;27.51;54.47;95893.06;4858478;29;20045;-78
2022/06/30 10:06:53;;;;;;;7.82;3.40;;;;;;;27.53;52.87;95898.22;4859108;29;20739;-79
2022/06/30 10:09:20;;;;;;;6.95;3.50;;;;;;;27.66;54.22;95889.88;4858742;29;20052;-78
2022/06/30 10:11:48;;;;;;;6.40;3.70;;;;;;;27.56;53.13;95891.72;4859142;29;20064;-79
2022/06/30 10:14:17;;;;;;;8.98;3.63;;;;;;;27.69;55.76;95895.38;4858675;29;20054;-78
2022/06/30 10:16:44;;;;;;;6.57;3.95;;;;;;;27.70;52.26;95891.38;4858943;29;20049;-78
2022/06/30 10:19:12;;;;;;;8.60;3.85;;;;;;;27.42;52.50;95892.91;4858314;29;20049;-79
2022/06/30 10:21:41;;;;;;;6.70;4.20;;;;;;;27.55;55.84;95895.75;4858780;29;20061;-78
2022/06/30 10:24:09;;;;;;;6.25;3.50;;;;;;;27.73;52.13;95895.31;4858310;29;20438;-78
2022/06/30 10:29:20;;;;;;;6.97;4.28;;;;;;;27.52;51.98;95891.06;4858187;29;20075;-79
2022/06/30 10:31:52;;;;;;;5.70;3.83;;;;;;;27.63;54.22;95888.75;4858697;29;20060;-79
2022/06/30 10:34:24;;;;;;;6.22;3.30;;;;;;;27.64;52.49;95893.13;4857928;29;20052;-78
2022/06/30 10:37:01;;;;;;;5.88;3.88;;;;;;;27.48;51.55;95890.38;4858586;29;20054;-78
2022/06/30 10:39:37;;;;;;;6.50;3.72;;;;;;;27.62;54.64;95895.59;4858546;29;20041;-77
2022/06/30 10:42:04;;;;;;;6.38;4.32;;;;;;;27.50;53.03;95887.91;4858658;29;20061;-77
2022/06/30 10:44:33;;;;;;;6.47;4.25;;;;;;;27.47;55.30;95883.22;4858695;29;20046;-79
2022/06/30 10:47:05;;;;;;;6.30;3.75;;;;;;;27.43;54.71;95874.13;4858456;29;20064;-79
2022/06/30 10:49:32;;;;;;;5.82;3.67;;;;;;;27.54;56.65;95872.59;4858331;29;20041;-78
2022/06/30 10:52:19;;;;;;;6.88;4.13;;;;;;;27.42;51.09;95878.16;4858657;29;20046;-77
2022/06/30 10:54:46;;;;;;;6.18;3.47;;;;;;;27.32;51.57;95877.22;4859079;29;20037;-79
2022/06/30 10:57:14;;;;;;;8.10;3.72;;;;;;;27.36;52.85;95863.94;4858339;29;20102;-79
2022/06/30 10:59:42;;;;;;;8.68;3.65;;;;;;;27.46;55.33;95865.66;4857498;29;20049;-78
2022/06/30 11:02:25;;;;;;;5.68;3.35;;;;;;;27.56;55.42;95869.34;4857223;29;20088;-78
2022/06/30 11:05:12;;;;;;;7.65;3.42;;;;;;;27.70;54.08;95852.22;4858230;29;20046;-78
2022/06/30 11:07:40;;;;;;;8.35;3.85;;;;;;;27.80;51.86;95853.16;4857675;29;20073;-78
2022/06/30 11:10:18;;;;;;;7.88;4.18;;;;;;;27.79;51.32;95849.56;4857587;29;20056;-79
2022/06/30 11:12:55;;;;;;;7.20;4.00;;;;;;;27.65;49.01;95858.31;4858074;29;20042;-79
2022/06/30 11:15:22;;;;;;;5.15;3.50;;;;;;;27.83;53.70;95843.88;4857612;29;20622;-78
2022/06/30 11:17:53;;;;;;;7.75;3.75;;;;;;;27.89;51.41;95852.50;4857987;29;20056;-78
2022/06/30 11:20:19;;;;;;;7.47;3.58;;;;;;;27.77;49.37;95840.84;4857556;29;20125;-78
2022/06/30 11:22:47;;;;;;;6.60;3.20;;;;;;;27.97;51.08;95849.03;4858011;29;20133;-79
2022/06/30 11:27:17;;;;;;;5.95;3.08;;;;;;;27.91;54.08;95848.03;4857501;29;20136;-78
2022/06/30 11:28:02;;;;;;;4.47;3.10;;;;;;;28.00;50.74;95839.00;4857199;29;20053;-79
2022/06/30 11:30:31;;;;;;;6.10;3.20;;;;;;;28.12;49.68;95835.41;4857596;29;20132;-78
2022/06/30 11:32:57;;;;;;;6.95;3.50;;;;;;;28.11;49.77;95833.84;4857825;29;20060;-78
2022/06/30 11:35:28;;;;;;;11.07;4.18;;;;;;;27.95;50.18;95842.34;4857177;29;20077;-79
2022/06/30 11:37:56;;;;;;;7.00;3.63;;;;;;;27.92;50.57;95832.03;4857834;29;20047;-78
2022/06/30 11:40:23;;;;;;;7.00;3.15;;;;;;;27.93;49.88;95822.38;4857139;29;20041;-79
2022/06/30 11:42:50;;;;;;;6.72;3.75;;;;;;;27.89;49.58;95830.13;4857351;29;20520;-79
2022/06/30 11:45:17;;;;;;;10.23;3.60;;;;;;;28.01;50.54;95826.56;4857353;29;20056;-78
2022/06/30 11:47:51;;;;;;;10.05;3.88;;;;;;;27.97;49.28;95832.25;4857660;29;20550;-79
2022/06/30 11:50:21;;;;;;;5.50;3.42;;;;;;;28.04;51.31;95825.69;4857243;29;20514;-78